Time;durP1;ratioP1;P1;durP2;ratioP2;P2;SDS_P1;SDS_P2;PMS_P1;PMS_P2;Temp;Humidity;BMP_temperature;BMP_pressure;BME280_temperature;BME280_humidity;BME280_pressure;Samples;Min_cycle;Max_cycle;Signal;HPM_P1;HPM_P2
2022/04/27 00:01:35;;;;;;;9.98;5.78;;;;;;;;;;5014163;28;20756;-68
2022/04/27 00:04:00;;;;;;;15.40;6.90;;;;;;;;;;5010495;28;20028;-68
2022/04/27 00:06:25;;;;;;;14.75;6.25;;;;;;;;;;5019752;28;20407;-68
2022/04/27 00:08:50;;;;;;;9.00;6.13;;;;;;;;;;5013544;28;20111;-68
2022/04/27 00:11:15;;;;;;;11.15;6.10;;;;;;;;;;5012859;28;20293;-68
2022/04/27 00:13:41;;;;;;;13.02;6.90;;;;;;;;;;5010355;28;20784;-68
2022/04/27 00:16:06;;;;;;;10.25;6.43;;;;;;;;;;4997484;28;20091;-68
2022/04/27 00:18:31;;;;;;;13.93;6.10;;;;;;;;;;5013898;28;20732;-68
2022/04/27 00:20:56;;;;;;;12.82;6.90;;;;;;;;;;5011886;28;20179;-68
2022/04/27 00:23:25;;;;;;;9.87;6.63;;;;;;;;;;5017319;28;20096;-68
2022/04/27 00:25:50;;;;;;;12.57;7.05;;;;;;;;;;5011546;28;20266;-68
2022/04/27 00:28:15;;;;;;;10.63;6.95;;;;;;;;;;5008965;28;20162;-69
2022/04/27 00:30:40;;;;;;;15.23;7.00;;;;;;;;;;5010524;28;20472;-69
2022/04/27 00:33:06;;;;;;;20.58;6.78;;;;;;;;;;5013668;28;20092;-68
2022/04/27 00:35:31;;;;;;;11.73;6.07;;;;;;;;;;5011706;28;20781;-71
2022/04/27 00:37:56;;;;;;;12.70;6.00;;;;;;;;;;5010298;28;20076;-68
2022/04/27 00:40:21;;;;;;;11.47;6.67;;;;;;;;;;5018269;28;20278;-68
2022/04/27 00:42:46;;;;;;;13.70;6.88;;;;;;;;;;5018424;28;20279;-68
2022/04/27 00:45:12;;;;;;;13.93;7.82;;;;;;;;;;5011470;28;20275;-68
2022/04/27 00:47:37;;;;;;;17.02;6.72;;;;;;;;;;5012402;28;20266;-68
2022/04/27 00:50:02;;;;;;;20.25;6.90;;;;;;;;;;5010393;28;20265;-69
2022/04/27 00:52:28;;;;;;;12.95;6.20;;;;;;;;;;5008035;28;20634;-70
2022/04/27 00:54:53;;;;;;;10.63;6.70;;;;;;;;;;5011855;28;20025;-70
2022/04/27 00:57:22;;;;;;;13.27;6.63;;;;;;;;;;5013884;28;20537;-70
2022/04/27 00:59:47;;;;;;;11.07;6.07;;;;;;;;;;4995718;28;20033;-70
2022/04/27 01:02:13;;;;;;;14.63;6.65;;;;;;;;;;5016873;28;20030;-70
2022/04/27 01:04:38;;;;;;;13.50;7.32;;;;;;;;;;5014815;28;20733;-70
2022/04/27 01:07:04;;;;;;;11.48;7.35;;;;;;;;;;5011061;28;20487;-69
2022/04/27 01:09:30;;;;;;;17.75;7.97;;;;;;;;;;5012331;28;20401;-69
2022/04/27 01:11:56;;;;;;;12.85;7.18;;;;;;;;;;5000484;28;20332;-69
2022/04/27 01:14:22;;;;;;;14.15;7.10;;;;;;;;;;5016418;28;20170;-69
2022/04/27 01:16:54;;;;;;;12.30;7.20;;;;;;;;;;5009902;28;20551;-69
2022/04/27 01:19:21;;;;;;;13.38;6.82;;;;;;;;;;5009930;28;20165;-69
2022/04/27 01:21:47;;;;;;;17.67;7.72;;;;;;;;;;5007475;28;20112;-69
2022/04/27 01:24:12;;;;;;;12.85;7.43;;;;;;;;;;5007321;28;20379;-70
2022/04/27 01:26:37;;;;;;;11.88;6.75;;;;;;;;;;5008580;28;20025;-69
2022/04/27 01:29:03;;;;;;;11.83;7.07;;;;;;;;;;5014242;28;20271;-69
2022/04/27 01:31:28;;;;;;;15.40;7.28;;;;;;;;;;5011231;28;20356;-70
2022/04/27 01:33:55;;;;;;;12.75;7.03;;;;;;;;;;5013201;28;20375;-70
2022/04/27 01:36:20;;;;;;;17.05;6.65;;;;;;;;;;5020332;28;20802;-70
2022/04/27 01:38:45;;;;;;;12.38;7.63;;;;;;;;;;5009129;28;20029;-70
2022/04/27 01:41:10;;;;;;;12.98;6.40;;;;;;;;;;5007464;28;20033;-69
2022/04/27 01:43:36;;;;;;;12.57;6.70;;;;;;;;;;5013834;28;20267;-70
2022/04/27 01:46:02;;;;;;;10.80;6.43;;;;;;;;;;5015547;28;20040;-69
2022/04/27 01:48:27;;;;;;;12.10;7.30;;;;;;;;;;5011963;28;20547;-69
2022/04/27 01:50:53;;;;;;;14.13;8.02;;;;;;;;;;5009522;28;20037;-69
2022/04/27 01:56:03;;;;;;;13.07;7.32;;;;;;;;;;5013035;28;20044;-69
2022/04/27 01:58:28;;;;;;;14.30;8.02;;;;;;;;;;5016841;28;20033;-69
2022/04/27 02:00:53;;;;;;;13.18;7.70;;;;;;;;;;5014023;28;20079;-69
2022/04/27 02:03:18;;;;;;;15.23;8.43;;;;;;;;;;5011319;28;20104;-70
2022/04/27 02:05:47;;;;;;;15.05;7.90;;;;;;;;;;5012660;28;20026;-69
2022/04/27 02:08:12;;;;;;;14.63;8.13;;;;;;;;;;5012516;28;20049;-70
2022/04/27 02:10:38;;;;;;;18.88;8.63;;;;;;;;;;5016220;28;20103;-69
2022/04/27 02:13:07;;;;;;;17.20;9.07;;;;;;;;;;5010789;28;20039;-69
2022/04/27 02:15:33;;;;;;;12.52;8.05;;;;;;;;;;5012877;28;20075;-69
2022/04/27 02:17:58;;;;;;;14.10;8.18;;;;;;;;;;5016772;28;20021;-69
2022/04/27 02:20:23;;;;;;;16.00;8.45;;;;;;;;;;5016192;28;20034;-69
2022/04/27 02:22:49;;;;;;;16.92;8.80;;;;;;;;;;5015336;28;20025;-69
2022/04/27 02:25:14;;;;;;;18.13;8.80;;;;;;;;;;5021020;28;20021;-70
2022/04/27 02:27:41;;;;;;;16.98;8.18;;;;;;;;;;5014986;28;20022;-69
2022/04/27 02:30:06;;;;;;;19.95;8.82;;;;;;;;;;5014454;28;20022;-69
2022/04/27 02:32:31;;;;;;;13.13;7.63;;;;;;;;;;5017128;28;20032;-69
2022/04/27 02:34:57;;;;;;;15.18;7.85;;;;;;;;;;5014512;28;20029;-69
2022/04/27 02:37:22;;;;;;;13.25;8.13;;;;;;;;;;5021764;28;20025;-69
2022/04/27 02:39:47;;;;;;;12.43;7.07;;;;;;;;;;5019121;28;20378;-69
2022/04/27 02:42:12;;;;;;;17.25;8.57;;;;;;;;;;5017913;28;20025;-69
2022/04/27 02:44:38;;;;;;;17.00;8.55;;;;;;;;;;5015919;28;20056;-69
2022/04/27 02:47:03;;;;;;;21.55;8.88;;;;;;;;;;5016855;28;20057;-69
2022/04/27 02:52:13;;;;;;;14.85;7.97;;;;;;;;;;5016416;28;20181;-69
2022/04/27 02:54:38;;;;;;;16.15;9.65;;;;;;;;;;5012137;28;20025;-69
2022/04/27 02:57:03;;;;;;;19.60;8.83;;;;;;;;;;5014989;28;20040;-69
2022/04/27 02:59:28;;;;;;;13.23;7.65;;;;;;;;;;5004434;28;20984;-69
2022/04/27 03:01:54;;;;;;;20.63;8.68;;;;;;;;;;5012997;28;20419;-69
2022/04/27 03:04:19;;;;;;;17.63;8.13;;;;;;;;;;5016572;28;20021;-69
2022/04/27 03:06:44;;;;;;;11.50;7.43;;;;;;;;;;5014080;28;20057;-69
2022/04/27 03:09:09;;;;;;;10.63;6.40;;;;;;;;;;5021944;28;20029;-69
2022/04/27 03:11:34;;;;;;;13.82;7.60;;;;;;;;;;5013082;28;20306;-69
2022/04/27 03:14:00;;;;;;;13.50;7.83;;;;;;;;;;5019262;28;20026;-69
2022/04/27 03:16:25;;;;;;;15.52;8.23;;;;;;;;;;5011244;28;20281;-70
2022/04/27 03:18:50;;;;;;;20.20;8.18;;;;;;;;;;5021161;28;20858;-69
2022/04/27 03:21:15;;;;;;;14.98;8.05;;;;;;;;;;5018690;28;20362;-69
2022/04/27 03:23:40;;;;;;;19.00;9.40;;;;;;;;;;5019729;28;20272;-69
2022/04/27 03:26:05;;;;;;;19.27;9.68;;;;;;;;;;5015182;28;20042;-69
2022/04/27 03:28:31;;;;;;;15.23;8.45;;;;;;;;;;5014177;28;20108;-69
2022/04/27 03:30:56;;;;;;;15.50;8.77;;;;;;;;;;5012033;28;20617;-69
2022/04/27 03:33:21;;;;;;;17.30;8.90;;;;;;;;;;5012339;28;20444;-69
2022/04/27 03:35:47;;;;;;;17.88;10.27;;;;;;;;;;5014208;28;20275;-69
2022/04/27 03:38:14;;;;;;;18.67;9.57;;;;;;;;;;5009457;28;20523;-69
2022/04/27 03:40:39;;;;;;;20.23;9.70;;;;;;;;;;5010735;28;20065;-69
2022/04/27 03:43:04;;;;;;;18.70;10.00;;;;;;;;;;5011105;28;20435;-70
2022/04/27 03:45:29;;;;;;;17.63;9.73;;;;;;;;;;5011536;28;20044;-69
2022/04/27 03:47:54;;;;;;;14.52;8.15;;;;;;;;;;5014116;28;20056;-69
2022/04/27 03:50:20;;;;;;;17.48;9.55;;;;;;;;;;5017311;28;20387;-69
2022/04/27 03:52:45;;;;;;;18.15;9.30;;;;;;;;;;5016061;28;20278;-69
2022/04/27 03:55:10;;;;;;;15.75;9.40;;;;;;;;;;5015466;28;20078;-69
2022/04/27 03:57:37;;;;;;;17.52;9.95;;;;;;;;;;5015241;28;20029;-69
2022/04/27 04:00:03;;;;;;;19.45;9.13;;;;;;;;;;5017566;28;20026;-69
2022/04/27 04:02:28;;;;;;;20.77;10.60;;;;;;;;;;5015778;28;20022;-69
2022/04/27 04:04:53;;;;;;;16.27;8.50;;;;;;;;;;5011985;28;20020;-69
2022/04/27 04:07:18;;;;;;;18.15;8.40;;;;;;;;;;5013860;28;20361;-69
2022/04/27 04:09:43;;;;;;;13.35;7.88;;;;;;;;;;5015960;28;20344;-70
2022/04/27 04:12:09;;;;;;;16.35;9.10;;;;;;;;;;5015424;28;20304;-69
2022/04/27 04:14:36;;;;;;;18.63;9.63;;;;;;;;;;5016449;28;20031;-69
2022/04/27 04:17:01;;;;;;;18.33;9.80;;;;;;;;;;5016551;28;20013;-69
2022/04/27 04:19:27;;;;;;;18.08;10.07;;;;;;;;;;5017300;28;20039;-69
2022/04/27 04:21:52;;;;;;;17.73;9.90;;;;;;;;;;5002306;28;20465;-69
2022/04/27 04:24:17;;;;;;;19.73;9.18;;;;;;;;;;5017700;28;20320;-69
2022/04/27 04:29:26;;;;;;;20.77;9.70;;;;;;;;;;5014900;28;20266;-69
2022/04/27 04:31:51;;;;;;;22.27;9.82;;;;;;;;;;5014434;28;20395;-69
2022/04/27 04:34:17;;;;;;;17.65;9.00;;;;;;;;;;5014876;28;20033;-69
2022/04/27 04:36:42;;;;;;;21.05;9.73;;;;;;;;;;5002656;28;22866;-69
2022/04/27 04:39:07;;;;;;;18.00;9.25;;;;;;;;;;5013981;28;20037;-69
2022/04/27 04:41:32;;;;;;;19.50;9.90;;;;;;;;;;5016634;28;20356;-69
2022/04/27 04:43:57;;;;;;;21.58;10.23;;;;;;;;;;5012464;28;20028;-69
2022/04/27 04:46:23;;;;;;;21.15;9.82;;;;;;;;;;5013479;28;21079;-69
2022/04/27 04:48:48;;;;;;;25.55;11.18;;;;;;;;;;5013307;28;20021;-69
2022/04/27 04:51:13;;;;;;;19.35;9.15;;;;;;;;;;5014173;28;20041;-69
2022/04/27 04:53:38;;;;;;;23.67;10.27;;;;;;;;;;5017678;28;20075;-69
2022/04/27 04:56:03;;;;;;;22.60;10.13;;;;;;;;;;5004090;28;20311;-69
2022/04/27 04:58:29;;;;;;;23.38;10.07;;;;;;;;;;5014501;28;20455;-69
2022/04/27 05:00:54;;;;;;;22.02;9.13;;;;;;;;;;5015901;28;20764;-69
2022/04/27 05:03:19;;;;;;;21.80;11.52;;;;;;;;;;5016329;28;20566;-69
2022/04/27 05:05:45;;;;;;;22.55;10.88;;;;;;;;;;4998926;28;20025;-69
2022/04/27 05:08:10;;;;;;;27.75;12.25;;;;;;;;;;5014124;28;20696;-70
2022/04/27 05:10:35;;;;;;;26.30;11.60;;;;;;;;;;5015985;28;20114;-69
2022/04/27 05:13:01;;;;;;;24.05;11.35;;;;;;;;;;5016570;28;20028;-69
2022/04/27 05:15:26;;;;;;;30.83;12.13;;;;;;;;;;5011949;28;20298;-70
2022/04/27 05:17:51;;;;;;;27.70;12.93;;;;;;;;;;5018333;28;20040;-69
2022/04/27 05:20:16;;;;;;;26.77;11.10;;;;;;;;;;5018240;28;20049;-69
2022/04/27 05:22:41;;;;;;;25.98;12.50;;;;;;;;;;5016235;28;20297;-69
2022/04/27 05:25:10;;;;;;;28.73;12.48;;;;;;;;;;5021870;28;20056;-69
2022/04/27 05:27:36;;;;;;;25.45;11.80;;;;;;;;;;5018963;28;20017;-69
2022/04/27 05:32:45;;;;;;;24.07;12.63;;;;;;;;;;5016262;28;20526;-69
2022/04/27 05:35:10;;;;;;;27.33;13.25;;;;;;;;;;5018922;28;20041;-69
2022/04/27 05:37:36;;;;;;;33.63;14.43;;;;;;;;;;5017975;28;20777;-70
2022/04/27 05:40:01;;;;;;;37.20;15.30;;;;;;;;;;5011986;28;20467;-69
2022/04/27 05:42:26;;;;;;;31.10;13.63;;;;;;;;;;5017344;28;20029;-70
2022/04/27 05:44:51;;;;;;;29.10;13.65;;;;;;;;;;5015618;28;20311;-70
2022/04/27 05:47:16;;;;;;;30.90;14.13;;;;;;;;;;5018791;28;22113;-69
2022/04/27 05:49:42;;;;;;;25.92;13.48;;;;;;;;;;5019022;28;20160;-70
2022/04/27 05:52:07;;;;;;;41.97;15.60;;;;;;;;;;5018161;28;20792;-69
2022/04/27 05:54:32;;;;;;;45.28;16.67;;;;;;;;;;5016684;28;20283;-70
2022/04/27 05:56:57;;;;;;;31.23;15.13;;;;;;;;;;5021635;28;20742;-69
2022/04/27 05:59:22;;;;;;;41.60;16.40;;;;;;;;;;5013616;28;20353;-70
2022/04/27 06:01:47;;;;;;;37.97;17.08;;;;;;;;;;5009310;28;20513;-70
2022/04/27 06:04:13;;;;;;;42.85;16.70;;;;;;;;;;5016437;28;21051;-70
2022/04/27 06:06:38;;;;;;;37.50;15.88;;;;;;;;;;5003503;28;20295;-70
2022/04/27 06:09:03;;;;;;;39.80;16.75;;;;;;;;;;5013037;28;21005;-70
2022/04/27 06:11:28;;;;;;;44.40;17.30;;;;;;;;;;5013770;28;20018;-70
2022/04/27 06:13:54;;;;;;;33.38;15.95;;;;;;;;;;5015764;28;20033;-70
2022/04/27 06:16:19;;;;;;;44.47;17.77;;;;;;;;;;5012596;28;20033;-70
2022/04/27 06:18:45;;;;;;;38.63;17.63;;;;;;;;;;5017662;28;20556;-70
2022/04/27 06:21:10;;;;;;;46.63;17.65;;;;;;;;;;5020265;28;20147;-70
2022/04/27 06:23:36;;;;;;;44.45;18.98;;;;;;;;;;5018868;28;20306;-70
2022/04/27 06:26:02;;;;;;;45.78;19.40;;;;;;;;;;5013861;28;20049;-70
2022/04/27 06:28:27;;;;;;;40.22;18.67;;;;;;;;;;5015386;28;20421;-70
2022/04/27 06:30:52;;;;;;;47.95;18.23;;;;;;;;;;5013141;28;20021;-71
2022/04/27 06:33:18;;;;;;;39.85;18.30;;;;;;;;;;5014137;28;20021;-70
2022/04/27 06:35:43;;;;;;;43.42;18.15;;;;;;;;;;5014002;28;20271;-70
2022/04/27 06:38:09;;;;;;;49.58;18.92;;;;;;;;;;5012776;28;20117;-70
2022/04/27 06:40:34;;;;;;;41.85;17.67;;;;;;;;;;5012368;28;20149;-70
2022/04/27 06:42:59;;;;;;;36.92;17.83;;;;;;;;;;5011707;28;21025;-70
2022/04/27 06:45:27;;;;;;;33.80;16.42;;;;;;;;;;5013448;28;20500;-70
2022/04/27 06:47:53;;;;;;;35.80;16.52;;;;;;;;;;5016140;28;20409;-71
2022/04/27 06:50:18;;;;;;;34.90;16.23;;;;;;;;;;5000928;28;20033;-71
2022/04/27 06:52:45;;;;;;;30.88;14.45;;;;;;;;;;5012998;28;20126;-71
2022/04/27 06:55:11;;;;;;;40.35;16.60;;;;;;;;;;5019846;28;20067;-70
2022/04/27 06:57:36;;;;;;;26.42;13.68;;;;;;;;;;5017659;28;20021;-70
2022/04/27 07:00:01;;;;;;;25.70;14.00;;;;;;;;;;5016184;28;20530;-71
2022/04/27 07:02:28;;;;;;;28.45;11.73;;;;;;;;;;5013472;28;20037;-71
2022/04/27 07:04:59;;;;;;;28.45;12.70;;;;;;;;;;5016950;28;20058;-71
2022/04/27 07:07:24;;;;;;;27.67;12.68;;;;;;;;;;5009863;28;20072;-71
2022/04/27 07:09:49;;;;;;;25.07;12.57;;;;;;;;;;5013360;28;20018;-70
2022/04/27 07:12:14;;;;;;;25.40;12.83;;;;;;;;;;5010293;28;20040;-70
2022/04/27 07:14:40;;;;;;;22.65;11.80;;;;;;;;;;5013836;28;20122;-70
2022/04/27 07:17:05;;;;;;;23.92;12.00;;;;;;;;;;5014646;28;20548;-71
2022/04/27 07:19:30;;;;;;;26.38;11.73;;;;;;;;;;5016966;28;20041;-70
2022/04/27 07:21:55;;;;;;;18.37;10.03;;;;;;;;;;5015830;28;20026;-70
2022/04/27 07:24:20;;;;;;;20.60;10.47;;;;;;;;;;5014770;28;20056;-70
2022/04/27 07:26:46;;;;;;;16.40;9.82;;;;;;;;;;5015362;28;20118;-70
2022/04/27 07:29:11;;;;;;;26.83;10.93;;;;;;;;;;4997323;28;20021;-70
2022/04/27 07:31:36;;;;;;;22.13;11.98;;;;;;;;;;5010084;28;20460;-69
2022/04/27 07:34:01;;;;;;;20.02;10.38;;;;;;;;;;5011604;28;20135;-70
2022/04/27 07:36:26;;;;;;;19.98;10.25;;;;;;;;;;5012952;28;20033;-70
2022/04/27 07:38:52;;;;;;;19.73;10.52;;;;;;;;;;5016664;28;20033;-70
2022/04/27 07:41:17;;;;;;;22.70;10.70;;;;;;;;;;5019240;28;21533;-71
2022/04/27 07:43:42;;;;;;;20.13;10.35;;;;;;;;;;5015080;28;20018;-70
2022/04/27 07:46:09;;;;;;;16.63;8.37;;;;;;;;;;5017759;28;20022;-69
2022/04/27 07:48:34;;;;;;;17.77;9.10;;;;;;;;;;5017282;28;20758;-69
2022/04/27 07:50:59;;;;;;;17.70;8.48;;;;;;;;;;5020263;28;20093;-69
2022/04/27 07:53:25;;;;;;;15.88;7.88;;;;;;;;;;5004587;28;20075;-69
2022/04/27 07:55:50;;;;;;;16.42;8.75;;;;;;;;;;5018385;28;20051;-69
2022/04/27 07:58:15;;;;;;;15.88;8.70;;;;;;;;;;5019850;28;20054;-68
2022/04/27 08:00:40;;;;;;;16.05;7.43;;;;;;;;;;5015434;28;20040;-68
2022/04/27 08:03:06;;;;;;;14.98;8.15;;;;;;;;;;5020566;28;20037;-68
2022/04/27 08:05:31;;;;;;;13.37;8.87;;;;;;;;;;5025237;28;20029;-68
2022/04/27 08:07:57;;;;;;;14.27;6.65;;;;;;;;;;5016284;28;20264;-69
2022/04/27 08:10:22;;;;;;;14.30;6.30;;;;;;;;;;5019939;28;20128;-69
2022/04/27 08:12:49;;;;;;;14.17;5.90;;;;;;;;;;5014908;28;20267;-70
2022/04/27 08:15:15;;;;;;;11.15;5.97;;;;;;;;;;5015693;28;20353;-70
2022/04/27 08:17:50;;;;;;;14.15;6.93;;;;;;;;;;5014160;28;20021;-69
2022/04/27 08:23:05;;;;;;;19.85;7.40;;;;;;;;;;5001417;28;20084;-70
2022/04/27 08:25:30;;;;;;;13.48;7.10;;;;;;;;;;5017616;28;20521;-70
2022/04/27 08:27:55;;;;;;;12.45;7.03;;;;;;;;;;5015049;28;20030;-70
2022/04/27 08:30:20;;;;;;;13.40;6.32;;;;;;;;;;5024366;28;20025;-70
2022/04/27 08:32:45;;;;;;;15.00;7.47;;;;;;;;;;5013396;28;20103;-68
2022/04/27 08:35:11;;;;;;;11.80;5.82;;;;;;;;;;5014855;28;20278;-68
2022/04/27 08:37:36;;;;;;;12.27;6.50;;;;;;;;;;5018432;28;20041;-68
2022/04/27 08:40:04;;;;;;;9.80;6.00;;;;;;;;;;5016334;28;20076;-69
2022/04/27 08:42:29;;;;;;;9.25;5.47;;;;;;;;;;5010693;28;20351;-68
2022/04/27 08:44:54;;;;;;;7.97;5.13;;;;;;;;;;5013890;28;20022;-72
2022/04/27 08:47:21;;;;;;;7.80;5.18;;;;;;;;;;5015814;28;20529;-71
2022/04/27 08:49:46;;;;;;;10.93;4.90;;;;;;;;;;5016812;28;20024;-69
2022/04/27 08:52:12;;;;;;;8.80;4.30;;;;;;;;;;5021712;28;20034;-70
2022/04/27 08:54:38;;;;;;;10.02;4.80;;;;;;;;;;5020930;28;20339;-70
2022/04/27 08:57:04;;;;;;;10.48;4.57;;;;;;;;;;5015394;28;20026;-69
2022/04/27 08:59:29;;;;;;;15.50;5.43;;;;;;;;;;5020687;28;20076;-70
2022/04/27 09:01:55;;;;;;;6.90;5.43;;;;;;;;;;5018091;28;20104;-70
2022/04/27 09:04:20;;;;;;;8.00;4.35;;;;;;;;;;5019198;28;20448;-70
2022/04/27 09:06:47;;;;;;;15.52;4.72;;;;;;;;;;5019785;28;20026;-70
2022/04/27 09:09:31;;;;;;;7.32;3.85;;;;;;;;;;5020107;28;20626;-69
2022/04/27 09:11:56;;;;;;;7.45;4.35;;;;;;;;;;5017962;28;20435;-70
2022/04/27 09:14:34;;;;;;;11.00;4.83;;;;;;;;;;5014525;28;20059;-71
2022/04/27 09:22:27;;;;;;;14.98;4.75;;;;;;;;;;5020954;28;20063;-68
2022/04/27 09:24:56;;;;;;;11.10;4.50;;;;;;;;;;5014215;28;20025;-68
2022/04/27 09:27:22;;;;;;;11.18;4.93;;;;;;;;;;5017813;28;20313;-69
2022/04/27 09:29:56;;;;;;;5.85;4.20;;;;;;;;;;5016701;28;20029;-70
2022/04/27 09:32:21;;;;;;;9.63;4.43;;;;;;;;;;5020812;28;20020;-70
2022/04/27 09:34:47;;;;;;;11.80;4.00;;;;;;;;;;5012308;28;20037;-69
2022/04/27 09:37:17;;;;;;;7.53;4.22;;;;;;;;;;5018449;28;20274;-69
2022/04/27 09:39:43;;;;;;;13.70;4.90;;;;;;;;;;5018814;28;20060;-70
2022/04/27 09:42:10;;;;;;;11.80;6.15;;;;;;;;;;5013882;28;20073;-70
2022/04/27 09:44:36;;;;;;;6.82;4.32;;;;;;;;;;5019387;28;20021;-68
2022/04/27 09:47:03;;;;;;;6.30;4.10;;;;;;;;;;5018102;28;20028;-71
2022/04/27 09:49:28;;;;;;;8.93;4.50;;;;;;;;;;5013507;28;20024;-69
2022/04/27 09:51:54;;;;;;;9.82;4.68;;;;;;;;;;5011156;28;20431;-70
2022/04/27 09:54:20;;;;;;;8.75;4.28;;;;;;;;;;5015770;28;20120;-69
2022/04/27 09:56:48;;;;;;;12.03;5.23;;;;;;;;;;5011575;28;20111;-69
2022/04/27 09:59:14;;;;;;;10.60;5.00;;;;;;;;;;5017443;28;20548;-70
2022/04/27 10:01:39;;;;;;;10.27;5.00;;;;;;;;;;5015978;28;20057;-69
2022/04/27 10:04:05;;;;;;;10.33;5.10;;;;;;;;;;5003782;28;20029;-69
2022/04/27 10:06:31;;;;;;;9.90;4.45;;;;;;;;;;5016774;28;20763;-68
2022/04/27 10:08:58;;;;;;;8.02;4.93;;;;;;;;;;5018734;28;20021;-69
2022/04/27 10:11:24;;;;;;;7.55;4.60;;;;;;;;;;5015607;28;20037;-69
2022/04/27 10:13:51;;;;;;;9.18;5.45;;;;;;;;;;5017150;28;20399;-69
2022/04/27 10:16:16;;;;;;;8.85;5.93;;;;;;;;;;5014882;28;20033;-68
2022/04/27 10:18:41;;;;;;;9.23;5.45;;;;;;;;;;5014260;28;20372;-69
2022/04/27 10:21:10;;;;;;;12.53;5.50;;;;;;;;;;5015476;28;20488;-69
2022/04/27 10:23:42;;;;;;;10.82;6.50;;;;;;;;;;5013189;28;20398;-69
2022/04/27 10:26:07;;;;;;;10.10;6.53;;;;;;;;;;5018644;28;20215;-69
2022/04/27 10:28:35;;;;;;;9.02;6.05;;;;;;;;;;5020372;28;20116;-69
2022/04/27 10:31:02;;;;;;;11.27;6.18;;;;;;;;;;5016686;28;20032;-69
2022/04/27 10:33:47;;;;;;;11.82;6.22;;;;;;;;;;5016126;28;20029;-69
2022/04/27 10:36:27;;;;;;;10.95;5.90;;;;;;;;;;5015952;28;20032;-69
2022/04/27 10:39:10;;;;;;;18.63;6.38;;;;;;;;;;5016636;28;20065;-69
2022/04/27 10:41:36;;;;;;;11.23;6.13;;;;;;;;;;5014318;28;20079;-69
2022/04/27 10:44:01;;;;;;;11.70;6.33;;;;;;;;;;5017155;28;20125;-69
2022/04/27 10:46:39;;;;;;;25.27;6.88;;;;;;;;;;5011560;28;20029;-69
2022/04/27 10:49:19;;;;;;;14.45;6.35;;;;;;;;;;5012341;28;20034;-69
2022/04/27 10:52:03;;;;;;;9.63;6.72;;;;;;;;;;5016094;28;20370;-69
2022/04/27 10:54:31;;;;;;;11.82;6.53;;;;;;;;;;5018632;28;20148;-69
2022/04/27 10:57:19;;;;;;;10.90;6.13;;;;;;;;;;5031974;28;20092;-69
2022/04/27 10:59:45;;;;;;;15.63;7.85;;;;;;;;;;5030984;28;20108;-69
2022/04/27 11:02:29;;;;;;;13.30;6.53;;;;;;;;;;5024327;28;20044;-69
2022/04/27 11:04:54;;;;;;;;;;;;;;;;;;5016432;28;20057;-69
2022/04/27 11:07:25;;;;;;;10.93;6.63;;;;;;;;;;5010199;28;19959;-69
2022/04/27 11:10:10;;;;;;;10.10;6.82;;;;;;;;;;5017388;28;20502;-69
2022/04/27 11:12:36;;;;;;;14.63;7.57;;;;;;;;;;5019113;28;20487;-69
2022/04/27 11:15:02;;;;;;;12.52;7.43;;;;;;;;;;5014394;28;20025;-69
2022/04/27 11:17:33;;;;;;;8.57;6.93;;;;;;;;;;5002276;28;20040;-69
2022/04/27 11:19:58;;;;;;;12.18;6.90;;;;;;;;;;5019191;28;20048;-69
2022/04/27 11:22:23;;;;;;;11.25;7.00;;;;;;;;;;5016748;28;20025;-68
2022/04/27 11:24:49;;;;;;;10.63;7.20;;;;;;;;;;5018852;28;20060;-68
2022/04/27 11:27:33;;;;;;;12.43;7.95;;;;;;;;;;5016700;28;20022;-68
2022/04/27 11:30:00;;;;;;;12.25;7.53;;;;;;;;;;5019265;28;20018;-69
2022/04/27 11:32:28;;;;;;;10.80;7.65;;;;;;;;;;5009705;28;20103;-68
2022/04/27 11:34:53;;;;;;;12.43;7.80;;;;;;;;;;5020551;28;20025;-68
2022/04/27 11:37:19;;;;;;;10.77;7.67;;;;;;;;;;5025827;28;20454;-68
2022/04/27 11:39:45;;;;;;;10.48;8.85;;;;;;;;;;5022732;28;20077;-68
2022/04/27 11:42:12;;;;;;;9.98;7.50;;;;;;;;;;5024016;28;20021;-68
2022/04/27 11:44:37;;;;;;;11.27;8.13;;;;;;;;;;5015678;28;20036;-69
2022/04/27 11:47:03;;;;;;;9.38;7.45;;;;;;;;;;5016630;28;20017;-69
2022/04/27 11:49:28;;;;;;;16.90;8.05;;;;;;;;;;5029242;28;20017;-68
2022/04/27 11:51:55;;;;;;;10.10;7.00;;;;;;;;;;5011773;28;20048;-68
2022/04/27 11:54:30;;;;;;;11.68;7.85;;;;;;;;;;5016943;28;20029;-69
2022/04/27 11:57:04;;;;;;;13.40;7.35;;;;;;;;;;5012619;28;20026;-70
2022/04/27 11:59:42;;;;;;;12.18;7.50;;;;;;;;;;5018515;28;20116;-68
2022/04/27 12:02:08;;;;;;;8.98;7.65;;;;;;;;;;5019207;28;20025;-69
2022/04/27 12:04:35;;;;;;;12.07;7.97;;;;;;;;;;5015589;28;20018;-73
2022/04/27 12:07:00;;;;;;;11.50;8.38;;;;;;;;;;5013862;28;20100;-69
2022/04/27 12:09:25;;;;;;;10.85;8.02;;;;;;;;;;5018003;28;20121;-69
2022/04/27 12:11:53;;;;;;;10.57;7.67;;;;;;;;;;5021894;28;20033;-69
2022/04/27 12:14:19;;;;;;;11.60;7.85;;;;;;;;;;5020262;28;20030;-68
2022/04/27 12:16:44;;;;;;;9.70;7.78;;;;;;;;;;5013088;28;20373;-69
2022/04/27 12:19:09;;;;;;;9.75;7.07;;;;;;;;;;5014136;28;20339;-69
2022/04/27 12:21:35;;;;;;;10.60;7.67;;;;;;;;;;5017448;28;20029;-68
2022/04/27 12:24:13;;;;;;;11.47;8.60;;;;;;;;;;5028788;28;20101;-70
2022/04/27 12:26:39;;;;;;;13.38;8.10;;;;;;;;;;5021687;28;20267;-69
2022/04/27 12:29:07;;;;;;;12.85;8.90;;;;;;;;;;5016594;28;20044;-69
2022/04/27 12:31:34;;;;;;;12.30;7.78;;;;;;;;;;5012004;28;20034;-69
2022/04/27 12:34:00;;;;;;;8.70;7.63;;;;;;;;;;5016892;28;21632;-69
2022/04/27 12:39:23;;;;;;;11.65;7.82;;;;;;;;;;5019679;28;20036;-69
2022/04/27 12:41:50;;;;;;;9.52;7.85;;;;;;;;;;5018174;28;20611;-69
2022/04/27 12:44:19;;;;;;;13.55;8.68;;;;;;;;;;5016241;28;20022;-69
2022/04/27 12:47:01;;;;;;;11.43;8.57;;;;;;;;;;4998912;28;20664;-70
2022/04/27 12:49:30;;;;;;;12.32;8.93;;;;;;;;;;5008446;28;20112;-69
2022/04/27 12:51:57;;;;;;;15.63;8.98;;;;;;;;;;5015869;28;20018;-68
2022/04/27 12:54:35;;;;;;;12.48;8.52;;;;;;;;;;5019588;28;20048;-70
2022/04/27 12:57:01;;;;;;;13.05;9.30;;;;;;;;;;5015903;28;20029;-71
2022/04/27 12:59:26;;;;;;;12.07;8.23;;;;;;;;;;5016609;28;20035;-71
2022/04/27 13:01:58;;;;;;;12.10;8.07;;;;;;;;;;5016330;28;20036;-71
2022/04/27 13:04:23;;;;;;;14.98;8.63;;;;;;;;;;5016251;28;20014;-80
2022/04/27 13:06:48;;;;;;;10.25;8.35;;;;;;;;;;5006011;28;20378;-71
2022/04/27 13:12:14;;;;;;;16.92;9.50;;;;;;;;;;4985652;28;20037;-70
2022/04/27 13:14:39;;;;;;;15.80;10.50;;;;;;;;;;5012609;28;20053;-71
2022/04/27 13:17:04;;;;;;;10.53;8.33;;;;;;;;;;5010883;28;20033;-70
2022/04/27 13:19:29;;;;;;;9.23;8.32;;;;;;;;;;5016970;28;20021;-70
2022/04/27 13:21:54;;;;;;;13.50;8.85;;;;;;;;;;5008240;28;20033;-71
2022/04/27 13:24:19;;;;;;;12.27;8.70;;;;;;;;;;5022035;28;20158;-71
2022/04/27 13:26:45;;;;;;;14.53;9.40;;;;;;;;;;5017480;28;20029;-71
2022/04/27 13:29:10;;;;;;;10.90;8.63;;;;;;;;;;5020878;28;20362;-71
2022/04/27 13:31:36;;;;;;;18.30;8.98;;;;;;;;;;5012547;28;20600;-71
2022/04/27 13:34:01;;;;;;;12.45;9.15;;;;;;;;;;5019699;28;20079;-70
2022/04/27 13:36:26;;;;;;;23.03;12.13;;;;;;;;;;5020754;28;20054;-72
2022/04/27 13:38:51;;;;;;;14.20;9.27;;;;;;;;;;5018983;28;20026;-71
2022/04/27 13:41:17;;;;;;;15.13;8.77;;;;;;;;;;5021465;28;20041;-72
2022/04/27 13:43:42;;;;;;;12.53;8.70;;;;;;;;;;5024574;28;20118;-73
2022/04/27 13:46:08;;;;;;;10.93;8.60;;;;;;;;;;5020376;28;20734;-71
2022/04/27 13:48:34;;;;;;;11.98;8.88;;;;;;;;;;5019710;28;20612;-72
2022/04/27 13:51:00;;;;;;;13.45;8.68;;;;;;;;;;5022453;28;20586;-71
2022/04/27 13:53:25;;;;;;;13.27;9.38;;;;;;;;;;5019364;28;20113;-72
2022/04/27 13:55:50;;;;;;;13.35;9.48;;;;;;;;;;5002323;28;20161;-72
2022/04/27 13:58:16;;;;;;;10.53;8.57;;;;;;;;;;5030659;28;20029;-71
2022/04/27 14:00:42;;;;;;;13.47;8.30;;;;;;;;;;5018767;28;20067;-74
2022/04/27 14:03:07;;;;;;;11.27;8.05;;;;;;;;;;5012672;28;20029;-72
2022/04/27 14:05:33;;;;;;;18.20;8.67;;;;;;;;;;5020352;28;20534;-72
2022/04/27 14:07:58;;;;;;;9.30;8.05;;;;;;;;;;5020973;28;20353;-72
2022/04/27 14:10:23;;;;;;;11.70;8.33;;;;;;;;;;5019697;28;20032;-72
2022/04/27 14:15:33;;;;;;;12.90;9.05;;;;;;;;;;5021066;28;20270;-72
2022/04/27 14:18:10;;;;;;;12.40;8.57;;;;;;;;;;5024511;28;20038;-72
2022/04/27 14:20:35;;;;;;;11.55;8.38;;;;;;;;;;5028417;28;20034;-72
2022/04/27 14:23:01;;;;;;;14.07;8.93;;;;;;;;;;5016823;28;20009;-72
2022/04/27 14:25:26;;;;;;;11.52;8.00;;;;;;;;;;5020063;28;20153;-72
2022/04/27 14:27:52;;;;;;;12.07;8.87;;;;;;;;;;5017860;28;20013;-71
2022/04/27 14:30:17;;;;;;;11.20;7.63;;;;;;;;;;5019165;28;20419;-71
2022/04/27 14:32:42;;;;;;;10.02;8.20;;;;;;;;;;5002509;28;20029;-71
2022/04/27 14:35:08;;;;;;;13.00;8.40;;;;;;;;;;5003529;28;20464;-71
2022/04/27 14:37:34;;;;;;;11.07;7.72;;;;;;;;;;5021943;28;20632;-69
2022/04/27 14:39:59;;;;;;;11.20;7.93;;;;;;;;;;5015848;28;20072;-68
2022/04/27 14:42:24;;;;;;;10.27;7.38;;;;;;;;;;5014520;28;20083;-69
2022/04/27 14:44:49;;;;;;;9.95;6.50;;;;;;;;;;5020918;28;20037;-71
2022/04/27 14:47:14;;;;;;;9.93;7.43;;;;;;;;;;5027484;28;20029;-74
2022/04/27 14:49:40;;;;;;;8.23;6.75;;;;;;;;;;5006498;28;20070;-70
2022/04/27 14:52:07;;;;;;;9.52;7.60;;;;;;;;;;5020888;28;20116;-71